Terminal Aerodrome Forecast
Issued by NWS

Home | Current Version | Previous Version | Text Only | Print | Product List | Glossary On
Versions: 1 2 3 4 5 6 7 8 9 10 11 12
277
FTUS42 KGSP 190538
TAFAND
TAF
KAND 190538Z 1906/2006 04003KT P6SM FEW200
      TEMPO 1910/1912 5SM BR
     FM191800 VRB03KT P6SM SKC=

USA.gov is the U.S. government's official web portal to all federal, state and local government web resources and services.